createdAt,value
2019-01-19T00:01:38.139Z,10.27
2019-01-19T00:04:51.686Z,11.63
2019-01-19T00:08:05.476Z,10.77
2019-01-19T00:11:01.889Z,10.60
2019-01-19T00:13:43.614Z,10.10
2019-01-19T00:16:37.440Z,13.23
2019-01-19T00:19:58.236Z,11.77
2019-01-19T00:22:50.064Z,13.60
2019-01-19T00:25:59.285Z,10.43
2019-01-19T00:28:43.203Z,12.53
2019-01-19T00:31:38.774Z,15.10
2019-01-19T00:34:37.340Z,13.33
2019-01-19T00:37:27.554Z,12.20
2019-01-19T00:40:34.121Z,13.30
2019-01-19T00:43:32.353Z,13.10
2019-01-19T00:46:53.222Z,11.53
2019-01-19T00:49:32.759Z,13.20
2019-01-19T00:52:26.874Z,14.33
2019-01-19T00:55:50.733Z,14.30
2019-01-19T00:58:52.733Z,13.20
2019-01-19T01:02:07.592Z,16.47
2019-01-19T01:04:57.679Z,19.77
2019-01-19T01:08:15.750Z,12.27
2019-01-19T01:10:51.639Z,12.73
2019-01-19T01:14:14.314Z,12.13
2019-01-19T01:17:09.206Z,15.07
2019-01-19T01:20:11.972Z,12.03
2019-01-19T01:23:12.872Z,13.47
2019-01-19T01:26:35.137Z,15.97
2019-01-19T01:29:45.517Z,13.80
2019-01-19T01:32:57.268Z,13.80
2019-01-19T01:35:57.028Z,13.17
2019-01-19T01:39:15.237Z,13.90
2019-01-19T01:42:15.800Z,13.27
2019-01-19T01:45:12.532Z,14.60
2019-01-19T01:48:23.231Z,17.23
2019-01-19T01:51:14.635Z,16.47
2019-01-19T01:54:32.336Z,14.17
2019-01-19T01:57:10.911Z,15.30
2019-01-19T02:00:29.126Z,20.83
2019-01-19T02:03:36.677Z,16.20
2019-01-19T02:06:39.075Z,13.13
2019-01-19T02:09:56.381Z,14.57
2019-01-19T02:13:09.761Z,12.63
2019-01-19T02:15:59.042Z,17.83
2019-01-19T02:19:15.271Z,15.77
2019-01-19T02:22:25.675Z,15.23
2019-01-19T02:25:33.528Z,17.90
2019-01-19T02:29:09.392Z,16.07
2019-01-19T02:32:15.039Z,17.47
2019-01-19T02:35:32.032Z,19.97
2019-01-19T02:38:36.872Z,15.10
2019-01-19T02:41:42.708Z,16.93
2019-01-19T02:44:29.649Z,15.90
2019-01-19T02:47:40.302Z,18.37
2019-01-19T02:50:35.665Z,16.55
2019-01-19T02:53:51.828Z,18.57
2019-01-19T02:56:52.610Z,18.17
2019-01-19T02:59:39.749Z,17.30
2019-01-19T03:02:44.840Z,18.50
2019-01-19T03:05:46.963Z,16.33
2019-01-19T03:09:04.858Z,14.67
2019-01-19T03:12:21.707Z,14.30
2019-01-19T03:15:46.545Z,18.10
2019-01-19T03:18:36.882Z,14.57
2019-01-19T03:21:55.656Z,18.40
2019-01-19T03:25:16.962Z,16.00
2019-01-19T03:28:22.362Z,16.73
2019-01-19T03:31:52.269Z,13.73
2019-01-19T03:34:48.590Z,14.03
2019-01-19T03:37:59.304Z,15.40
2019-01-19T03:40:44.856Z,14.93
2019-01-19T03:44:07.932Z,17.47
2019-01-19T03:47:25.806Z,15.67
2019-01-19T03:50:36.952Z,16.30
2019-01-19T03:53:20.227Z,14.90
2019-01-19T03:56:07.634Z,17.33
2019-01-19T03:58:56.676Z,14.57
2019-01-19T04:02:00.557Z,14.93
2019-01-19T04:05:05.865Z,14.90
2019-01-19T04:08:16.915Z,19.10
2019-01-19T04:11:35.258Z,17.10
2019-01-19T04:14:44.054Z,17.57
2019-01-19T04:17:57.277Z,11.63
2019-01-19T04:21:05.718Z,15.40
2019-01-19T04:23:40.822Z,13.87
2019-01-19T04:27:02.662Z,13.78
2019-01-19T04:29:48.321Z,15.43
2019-01-19T04:32:20.653Z,15.37
2019-01-19T04:35:21.783Z,17.53
2019-01-19T04:37:55.323Z,14.47
2019-01-19T04:40:35.593Z,13.97
2019-01-19T04:43:06.406Z,15.57
2019-01-19T04:45:40.127Z,14.17
2019-01-19T04:48:11.579Z,14.47
2019-01-19T04:50:42.224Z,16.33
2019-01-19T04:53:15.983Z,15.80
2019-01-19T04:55:49.661Z,14.10
2019-01-19T04:58:20.190Z,16.30
2019-01-19T05:01:34.634Z,13.70
2019-01-19T05:04:07.928Z,16.63
2019-01-19T05:06:38.622Z,16.50
2019-01-19T05:09:10.082Z,13.87
2019-01-19T05:11:40.753Z,16.53
2019-01-19T05:14:11.961Z,14.65
2019-01-19T05:16:42.514Z,13.27
2019-01-19T05:19:13.770Z,13.40
2019-01-19T05:21:44.605Z,16.40
2019-01-19T05:24:15.347Z,13.03
2019-01-19T05:26:46.124Z,13.53
2019-01-19T05:29:16.766Z,13.70
2019-01-19T05:31:50.667Z,18.67
2019-01-19T05:34:33.197Z,15.57
2019-01-19T05:37:09.347Z,13.07
2019-01-19T05:39:40.064Z,15.00
2019-01-19T05:42:10.705Z,13.27
2019-01-19T05:44:41.458Z,13.80
2019-01-19T05:47:11.959Z,15.83
2019-01-19T05:50:23.933Z,17.07
2019-01-19T05:52:57.739Z,14.60
2019-01-19T05:55:34.659Z,11.83
2019-01-19T05:58:05.941Z,14.70
2019-01-19T06:00:39.496Z,13.83
2019-01-19T06:03:18.384Z,14.90
2019-01-19T06:05:49.147Z,14.77
2019-01-19T06:08:19.690Z,16.50
2019-01-19T06:10:50.757Z,14.90
2019-01-19T06:13:21.424Z,15.47
2019-01-19T06:15:52.665Z,15.00
2019-01-19T06:18:23.336Z,13.23
2019-01-19T06:20:54.026Z,12.37
2019-01-19T06:23:24.993Z,14.27
2019-01-19T06:26:39.318Z,17.00
2019-01-19T06:29:09.839Z,12.73
2019-01-19T06:31:40.915Z,14.80
2019-01-19T06:34:12.008Z,17.17
2019-01-19T06:36:55.430Z,16.20
2019-01-19T06:39:29.811Z,14.77
2019-01-19T06:42:00.457Z,16.87
2019-01-19T06:44:31.088Z,16.43
2019-01-19T06:47:01.685Z,14.33
2019-01-19T06:49:32.601Z,15.83
2019-01-19T06:52:03.249Z,18.90
2019-01-19T06:54:34.136Z,21.00
2019-01-19T06:57:07.973Z,18.13
2019-01-19T06:59:40.034Z,16.40
2019-01-19T07:02:12.014Z,18.80
2019-01-19T07:04:42.867Z,18.10
2019-01-19T07:07:26.938Z,17.77
2019-01-19T07:09:57.865Z,19.67
2019-01-19T07:12:28.344Z,18.33
2019-01-19T07:14:59.004Z,19.67
2019-01-19T07:17:49.728Z,15.97
2019-01-19T07:20:22.730Z,15.90
2019-01-19T07:22:53.378Z,14.73
2019-01-19T07:25:24.274Z,13.87
2019-01-19T07:27:54.818Z,16.73
2019-01-19T07:30:25.306Z,16.77
2019-01-19T07:33:20.115Z,15.23
2019-01-19T07:35:50.968Z,16.43
2019-01-19T07:38:21.789Z,14.67
2019-01-19T07:41:00.752Z,16.70
2019-01-19T07:43:31.420Z,13.50
2019-01-19T07:46:07.900Z,17.57
2019-01-19T07:49:09.084Z,17.40
2019-01-19T07:51:48.543Z,15.47
2019-01-19T07:54:24.534Z,19.70
2019-01-19T07:56:58.982Z,49.13
2019-01-19T07:59:34.353Z,18.07
2019-01-19T08:02:15.057Z,17.00
2019-01-19T08:04:48.676Z,17.90
2019-01-19T08:07:20.663Z,17.37
2019-01-19T08:09:51.456Z,17.83
2019-01-19T08:12:22.070Z,16.97
2019-01-19T08:14:52.695Z,18.20
2019-01-19T08:17:36.773Z,16.17
2019-01-19T08:20:11.474Z,16.00
2019-01-19T08:22:50.813Z,16.70
2019-01-19T08:25:26.088Z,19.17
2019-01-19T08:28:01.318Z,16.90
2019-01-19T08:30:32.589Z,17.17
2019-01-19T08:33:05.786Z,18.67
2019-01-19T08:35:43.182Z,19.63
2019-01-19T08:38:18.059Z,18.30
2019-01-19T08:40:57.525Z,18.00
2019-01-19T08:43:42.156Z,19.30
2019-01-19T08:46:19.179Z,20.33
2019-01-19T08:48:54.343Z,18.60
2019-01-19T08:51:25.197Z,19.37
2019-01-19T08:53:55.925Z,17.97
2019-01-19T08:56:26.716Z,20.90
2019-01-19T08:58:57.443Z,20.47
2019-01-19T09:01:28.211Z,20.87
2019-01-19T09:04:00.505Z,21.63
2019-01-19T09:06:31.559Z,18.13
2019-01-19T09:09:02.410Z,17.93
2019-01-19T09:11:35.229Z,19.40
2019-01-19T09:14:05.778Z,16.20
2019-01-19T09:16:40.602Z,18.10
2019-01-19T09:19:08.808Z,18.70
2019-01-19T09:21:39.774Z,21.23
2019-01-19T09:24:33.137Z,21.97
2019-01-19T09:27:04.777Z,20.20
2019-01-19T09:29:35.436Z,20.27
2019-01-19T09:32:06.389Z,21.13
2019-01-19T09:34:37.342Z,18.63
2019-01-19T09:37:08.103Z,22.03
2019-01-19T09:39:38.556Z,18.17
2019-01-19T09:42:12.656Z,17.13
2019-01-19T09:44:43.267Z,20.00
2019-01-19T09:47:14.064Z,20.03
2019-01-19T09:49:44.514Z,22.73
2019-01-19T09:52:21.177Z,19.10
2019-01-19T09:54:47.085Z,17.90
2019-01-19T09:57:17.554Z,19.23
2019-01-19T09:59:48.001Z,18.73
2019-01-19T10:02:18.423Z,18.83
2019-01-19T10:04:48.923Z,21.13
2019-01-19T10:07:19.372Z,22.60
2019-01-19T10:09:49.816Z,19.70
2019-01-19T10:12:20.282Z,23.73
2019-01-19T10:14:50.808Z,20.13
2019-01-19T10:17:22.105Z,19.43
2019-01-19T10:19:53.333Z,21.60
2019-01-19T10:22:23.813Z,18.13
2019-01-19T10:24:54.251Z,21.30
2019-01-19T10:27:24.683Z,19.53
2019-01-19T10:29:55.151Z,17.03
2019-01-19T10:32:25.893Z,18.60
2019-01-19T10:34:56.811Z,18.40
2019-01-19T10:37:27.348Z,19.50
2019-01-19T10:39:57.849Z,20.03
2019-01-19T10:42:28.389Z,20.53
2019-01-19T10:44:58.960Z,18.53
2019-01-19T10:47:29.620Z,17.07
2019-01-19T10:50:00.336Z,16.60
2019-01-19T10:52:31.030Z,15.37
2019-01-19T10:55:01.492Z,16.23
2019-01-19T10:57:31.979Z,17.37
2019-01-19T11:00:02.432Z,14.57
2019-01-19T11:02:33.015Z,18.70
2019-01-19T11:05:04.257Z,15.23
2019-01-19T11:07:35.224Z,17.67
2019-01-19T11:10:07.929Z,15.57
2019-01-19T11:12:38.440Z,14.53
2019-01-19T11:15:10.817Z,13.73
2019-01-19T11:17:41.288Z,15.53
2019-01-19T11:20:18.305Z,15.77
2019-01-19T11:22:48.761Z,18.23
2019-01-19T11:25:19.229Z,14.40
2019-01-19T11:27:49.709Z,16.03
2019-01-19T11:30:24.755Z,16.53
2019-01-19T11:32:55.225Z,14.77
2019-01-19T11:35:25.780Z,13.67
2019-01-19T11:37:56.316Z,15.23
2019-01-19T11:40:37.569Z,15.03
2019-01-19T11:43:09.923Z,13.80
2019-01-19T11:45:40.349Z,14.93
2019-01-19T11:48:11.119Z,15.37
2019-01-19T11:50:41.971Z,15.07
2019-01-19T11:53:12.424Z,15.57
2019-01-19T11:55:42.918Z,15.43
2019-01-19T11:58:13.608Z,15.70
2019-01-19T12:00:44.454Z,14.40
2019-01-19T12:03:15.253Z,16.97
2019-01-19T12:05:46.129Z,22.13
2019-01-19T12:08:19.719Z,14.17
2019-01-19T12:10:49.264Z,18.73
2019-01-19T12:13:19.848Z,15.30
2019-01-19T12:15:50.572Z,15.53
2019-01-19T12:18:21.037Z,19.30
2019-01-19T12:20:52.156Z,20.70
2019-01-19T12:23:22.632Z,20.93
2019-01-19T12:25:53.154Z,19.63
2019-01-19T12:28:23.631Z,19.00
2019-01-19T12:30:55.126Z,19.40
2019-01-19T12:33:25.904Z,20.40
2019-01-19T12:35:56.371Z,22.43
2019-01-19T12:38:27.219Z,18.37
2019-01-19T12:40:57.700Z,18.87
2019-01-19T12:43:28.425Z,18.33
2019-01-19T12:46:08.111Z,19.07
2019-01-19T12:48:39.529Z,20.10
2019-01-19T12:51:11.860Z,16.07
2019-01-19T12:53:42.620Z,15.67
2019-01-19T12:56:13.102Z,18.77
2019-01-19T12:58:43.584Z,18.83
2019-01-19T13:01:14.065Z,17.83
2019-01-19T13:03:44.885Z,17.30
2019-01-19T13:06:30.430Z,20.00
2019-01-19T13:09:04.951Z,17.33
2019-01-19T13:12:18.167Z,19.07
2019-01-19T13:15:08.384Z,18.47
2019-01-19T13:17:58.381Z,19.00
2019-01-19T13:21:14.213Z,16.90
2019-01-19T13:24:24.708Z,18.17
2019-01-19T13:27:22.971Z,17.40
2019-01-19T13:30:29.316Z,17.23
2019-01-19T13:33:38.317Z,20.23
2019-01-19T13:36:34.124Z,17.30
2019-01-19T13:39:34.237Z,18.27
2019-01-19T13:42:26.147Z,19.17
2019-01-19T13:45:33.651Z,16.03
2019-01-19T13:48:43.301Z,16.97
2019-01-19T13:51:48.012Z,16.97
2019-01-19T13:55:06.572Z,18.97
2019-01-19T13:58:33.867Z,16.97
2019-01-19T14:01:42.392Z,16.63
2019-01-19T14:04:42.084Z,16.80
2019-01-19T14:08:05.519Z,16.30
2019-01-19T14:11:11.104Z,18.90
2019-01-19T14:14:31.461Z,25.80
2019-01-19T14:17:40.543Z,20.53
2019-01-19T14:20:25.927Z,19.23
2019-01-19T14:23:37.327Z,19.27
2019-01-19T14:26:54.888Z,19.13
2019-01-19T14:30:02.510Z,20.93
2019-01-19T14:33:20.094Z,19.30
2019-01-19T14:36:06.840Z,20.93
2019-01-19T14:38:48.001Z,22.33
2019-01-19T14:42:18.712Z,20.80
2019-01-19T14:45:26.521Z,18.83
2019-01-19T14:48:23.921Z,19.77
2019-01-19T14:51:37.116Z,21.47
2019-01-19T14:54:50.821Z,16.83
2019-01-19T14:58:03.386Z,18.53
2019-01-19T15:01:24.061Z,15.97
2019-01-19T15:04:11.645Z,15.90
2019-01-19T15:07:21.064Z,17.27
2019-01-19T15:10:38.542Z,16.80
2019-01-19T15:13:47.198Z,16.67
2019-01-19T15:16:49.881Z,15.93
2019-01-19T15:20:17.177Z,16.70
2019-01-19T15:23:28.514Z,18.17
2019-01-19T15:26:32.569Z,15.67
2019-01-19T15:29:36.384Z,17.03
2019-01-19T15:32:35.225Z,16.17
2019-01-19T15:35:30.619Z,17.80
2019-01-19T15:38:35.914Z,16.00
2019-01-19T15:41:43.168Z,17.57
2019-01-19T15:44:57.633Z,18.63
2019-01-19T15:47:35.247Z,16.30
2019-01-19T15:50:44.101Z,19.43
2019-01-19T15:53:36.822Z,15.37
2019-01-19T15:56:57.550Z,15.97
2019-01-19T15:59:56.895Z,13.33
2019-01-19T16:03:20.824Z,16.03
2019-01-19T16:06:16.388Z,20.00
2019-01-19T16:09:05.805Z,22.40
2019-01-19T16:12:06.243Z,24.37
2019-01-19T16:15:32.918Z,22.63
2019-01-19T16:18:46.260Z,28.23
2019-01-19T16:22:19.241Z,23.90
2019-01-19T16:25:33.480Z,26.77
2019-01-19T16:28:30.864Z,24.37
2019-01-19T16:31:51.482Z,24.67
2019-01-19T16:35:05.005Z,27.87
2019-01-19T16:37:53.413Z,26.70
2019-01-19T16:41:26.148Z,27.23
2019-01-19T16:44:33.332Z,28.07
2019-01-19T16:47:31.839Z,26.90
2019-01-19T16:50:48.765Z,26.50
2019-01-19T16:53:25.018Z,27.87
2019-01-19T16:56:34.538Z,30.57
2019-01-19T16:59:57.210Z,30.17
2019-01-19T17:02:45.225Z,29.83
2019-01-19T17:05:50.588Z,29.00
2019-01-19T17:08:36.985Z,27.17
2019-01-19T17:11:47.013Z,29.20
2019-01-19T17:14:52.059Z,31.20
2019-01-19T17:18:03.007Z,27.63
2019-01-19T17:21:14.746Z,28.73
2019-01-19T17:23:53.946Z,29.57
2019-01-19T17:27:03.260Z,28.73
2019-01-19T17:30:26.641Z,26.20
2019-01-19T17:33:43.041Z,28.13
2019-01-19T17:36:34.541Z,29.27
2019-01-19T17:39:58.418Z,30.67
2019-01-19T17:43:31.034Z,28.25
2019-01-19T17:46:39.421Z,30.03
2019-01-19T17:49:35.740Z,28.13
2019-01-19T17:52:17.624Z,29.07
2019-01-19T17:55:23.481Z,30.93
2019-01-19T17:58:17.420Z,29.93
2019-01-19T18:01:47.357Z,36.73
2019-01-19T18:04:43.229Z,31.93
2019-01-19T18:07:24.124Z,30.90
2019-01-19T18:10:52.709Z,31.50
2019-01-19T18:13:52.928Z,34.30
2019-01-19T18:17:22.380Z,33.27
2019-01-19T18:20:33.945Z,34.20
2019-01-19T18:23:39.763Z,36.07
2019-01-19T18:26:37.497Z,33.97
2019-01-19T18:29:49.395Z,33.67
2019-01-19T18:32:41.448Z,31.63
2019-01-19T18:35:46.436Z,35.37
2019-01-19T18:39:00.673Z,31.80
2019-01-19T18:42:10.619Z,30.57
2019-01-19T18:45:07.512Z,39.87
2019-01-19T18:47:51.043Z,34.37
2019-01-19T18:50:48.360Z,36.43
2019-01-19T18:53:54.544Z,33.17
2019-01-19T18:56:52.015Z,37.20
2019-01-19T18:59:44.822Z,38.90
2019-01-19T19:03:12.208Z,38.23
2019-01-19T19:06:32.516Z,37.10
2019-01-19T19:09:49.135Z,43.37
2019-01-19T19:16:15.427Z,37.67
2019-01-19T19:22:53.182Z,42.37
2019-01-19T19:25:50.394Z,34.33
2019-01-19T19:28:56.933Z,37.23
2019-01-19T19:32:14.604Z,43.10
2019-01-19T19:35:25.006Z,37.53
2019-01-19T19:38:20.256Z,40.83
2019-01-19T19:41:27.529Z,40.03
2019-01-19T19:44:35.164Z,42.07
2019-01-19T19:47:29.802Z,41.93
2019-01-19T19:50:46.150Z,38.00
2019-01-19T19:53:19.045Z,39.10
2019-01-19T19:55:48.305Z,40.83
2019-01-19T19:58:19.130Z,39.20
2019-01-19T20:00:53.926Z,37.37
2019-01-19T20:03:24.965Z,38.07
2019-01-19T20:05:56.567Z,35.70
2019-01-19T20:08:27.273Z,38.97
2019-01-19T20:10:58.841Z,41.13
2019-01-19T20:13:29.819Z,40.37
2019-01-19T20:16:01.204Z,41.83
2019-01-19T20:18:33.838Z,40.58
2019-01-19T20:21:04.605Z,41.30
2019-01-19T20:23:35.861Z,42.43
2019-01-19T20:26:07.460Z,39.23
2019-01-19T20:28:41.000Z,41.50
2019-01-19T20:31:17.546Z,40.80
2019-01-19T20:33:48.125Z,40.23
2019-01-19T20:36:18.967Z,38.20
2019-01-19T20:38:49.464Z,38.80
2019-01-19T20:41:20.041Z,37.33
2019-01-19T20:43:51.093Z,46.80
2019-01-19T20:46:21.710Z,42.27
2019-01-19T20:48:52.770Z,39.07
2019-01-19T20:51:27.400Z,36.20
2019-01-19T20:53:58.184Z,42.73
2019-01-19T20:56:28.686Z,40.13
2019-01-19T20:59:02.709Z,39.37
2019-01-19T21:01:33.185Z,41.43
2019-01-19T21:04:04.301Z,40.63
2019-01-19T21:11:51.326Z,45.53
2019-01-19T21:14:23.476Z,43.83
2019-01-19T21:16:57.861Z,54.58
2019-01-19T21:19:28.851Z,53.73
2019-01-19T21:22:00.091Z,50.17
2019-01-19T21:24:37.354Z,46.53
2019-01-19T21:27:08.785Z,44.47
2019-01-19T21:29:39.628Z,47.73
2019-01-19T21:32:10.274Z,44.03
2019-01-19T21:34:40.752Z,46.18
2019-01-19T21:37:11.667Z,46.17
2019-01-19T21:39:42.248Z,44.87
2019-01-19T21:42:17.025Z,48.28
2019-01-19T21:44:47.548Z,44.15
2019-01-19T21:47:18.993Z,42.20
2019-01-19T21:49:50.351Z,46.03
2019-01-19T21:52:21.766Z,47.80
2019-01-19T21:54:55.498Z,46.87
2019-01-19T21:57:26.434Z,45.23
2019-01-19T21:59:56.945Z,46.50
2019-01-19T22:02:27.450Z,46.48
2019-01-19T22:04:58.722Z,45.97
2019-01-19T22:07:29.469Z,46.40
2019-01-19T22:09:59.929Z,42.27
2019-01-19T22:12:30.464Z,44.70
2019-01-19T22:15:01.256Z,44.45
2019-01-19T22:17:39.337Z,42.43
2019-01-19T22:20:05.220Z,44.67
2019-01-19T22:22:36.008Z,44.80
2019-01-19T22:25:10.078Z,43.60
2019-01-19T22:27:43.508Z,43.47
2019-01-19T22:30:15.760Z,50.33
2019-01-19T22:32:47.856Z,46.53
2019-01-19T22:35:19.256Z,46.77
2019-01-19T22:37:50.176Z,42.47
2019-01-19T22:40:23.897Z,50.87
2019-01-19T22:42:57.447Z,46.30
2019-01-19T22:45:28.732Z,43.45
2019-01-19T22:47:59.571Z,42.83
2019-01-19T22:50:30.382Z,48.63
2019-01-19T22:53:01.301Z,46.98
2019-01-19T22:55:31.752Z,50.80
2019-01-19T22:58:05.952Z,46.63
2019-01-19T23:01:08.819Z,45.47
2019-01-19T23:03:40.504Z,43.40
2019-01-19T23:06:11.057Z,46.90
2019-01-19T23:08:45.078Z,49.53
2019-01-19T23:11:16.401Z,45.92
2019-01-19T23:13:47.556Z,49.00
2019-01-19T23:16:18.063Z,49.60
2019-01-19T23:18:48.577Z,46.57
2019-01-19T23:21:19.085Z,51.70
2019-01-19T23:23:50.365Z,53.53
2019-01-19T23:26:21.823Z,46.45
2019-01-19T23:28:54.241Z,54.25
2019-01-19T23:31:25.586Z,51.33
2019-01-19T23:33:56.978Z,54.70
2019-01-19T23:36:28.044Z,50.58
2019-01-19T23:38:58.537Z,50.43
2019-01-19T23:41:33.367Z,50.98
2019-01-19T23:44:05.073Z,47.53
2019-01-19T23:46:35.932Z,51.80
2019-01-19T23:49:07.635Z,48.33
2019-01-19T23:51:39.156Z,48.37
2019-01-19T23:54:10.470Z,49.73
2019-01-19T23:56:41.930Z,50.08
2019-01-19T23:59:13.619Z,47.65
